createdAt,value
2023-02-14T00:00:53.296Z,1022.33
2023-02-14T00:01:53.268Z,1022.34
2023-02-14T00:02:53.280Z,1022.32
2023-02-14T00:03:53.196Z,1022.31
2023-02-14T00:04:53.221Z,1022.3
2023-02-14T00:05:53.141Z,1022.3
2023-02-14T00:06:53.096Z,1022.26
2023-02-14T00:07:53.061Z,1022.25
2023-02-14T00:08:53.028Z,1022.28
2023-02-14T00:09:53.019Z,1022.29
2023-02-14T00:10:52.966Z,1022.31
2023-02-14T00:11:52.966Z,1022.26
2023-02-14T00:12:52.898Z,1022.29
2023-02-14T00:13:52.869Z,1022.25
2023-02-14T00:14:52.829Z,1022.26
2023-02-14T00:15:52.861Z,1022.24
2023-02-14T00:16:52.759Z,1022.24
2023-02-14T00:17:52.728Z,1022.26
2023-02-14T00:18:52.689Z,1022.26
2023-02-14T00:19:52.657Z,1022.24
2023-02-14T00:20:52.627Z,1022.24
2023-02-14T00:21:52.601Z,1022.19
2023-02-14T00:22:52.554Z,1022.18
2023-02-14T00:23:52.521Z,1022.22
2023-02-14T00:24:52.485Z,1022.2
2023-02-14T00:25:52.477Z,1022.19
2023-02-14T00:26:52.417Z,1022.19
2023-02-14T00:27:52.386Z,1022.19
2023-02-14T00:28:52.348Z,1022.21
2023-02-14T00:29:52.362Z,1022.21
2023-02-14T00:30:52.294Z,1022.21
2023-02-14T00:31:52.284Z,1022.22
2023-02-14T00:32:52.213Z,1022.23
2023-02-14T00:33:52.189Z,1022.23
2023-02-14T00:34:52.144Z,1022.25
2023-02-14T00:35:52.121Z,1022.24
2023-02-14T00:36:52.077Z,1022.24
2023-02-14T00:37:52.045Z,1022.16
2023-02-14T00:38:52.007Z,1022.22
2023-02-14T00:39:51.991Z,1022.21
2023-02-14T00:40:51.946Z,1022.22
2023-02-14T00:41:51.931Z,1022.22
2023-02-14T00:42:51.871Z,1022.22
2023-02-14T00:43:51.841Z,1022.26
2023-02-14T00:44:51.802Z,1022.24
2023-02-14T00:45:51.813Z,1022.27
2023-02-14T00:46:51.733Z,1022.27
2023-02-14T00:47:51.706Z,1022.3
2023-02-14T00:48:51.669Z,1022.3
2023-02-14T00:49:51.635Z,1022.3
2023-02-14T00:50:51.600Z,1022.31
2023-02-14T00:51:51.566Z,1022.32
2023-02-14T00:52:51.537Z,1022.32
2023-02-14T00:53:51.528Z,1022.31
2023-02-14T00:54:51.461Z,1022.35
2023-02-14T00:55:51.426Z,1022.35
2023-02-14T00:56:51.393Z,1022.38
2023-02-14T00:57:51.394Z,1022.37
2023-02-14T00:58:51.330Z,1022.36
2023-02-14T00:59:51.294Z,1022.35
2023-02-14T01:00:51.285Z,1022.4
2023-02-14T01:01:51.239Z,1022.4
2023-02-14T01:02:51.354Z,1022.39
2023-02-14T01:03:51.153Z,1022.34
2023-02-14T01:04:51.118Z,1022.36
2023-02-14T01:05:51.082Z,1022.35
2023-02-14T01:06:51.052Z,1022.38
2023-02-14T01:07:51.013Z,1022.31
2023-02-14T01:08:50.979Z,1022.32
2023-02-14T01:09:50.943Z,1022.34
2023-02-14T01:10:50.909Z,1022.34
2023-02-14T01:11:50.872Z,1022.34
2023-02-14T01:12:50.842Z,1022.32
2023-02-14T01:13:50.835Z,1022.37
2023-02-14T01:14:50.772Z,1022.39
2023-02-14T01:15:50.735Z,1022.38
2023-02-14T01:16:50.784Z,1022.32
2023-02-14T01:17:50.665Z,1022.35
2023-02-14T01:18:50.632Z,1022.34
2023-02-14T01:19:50.597Z,1022.35
2023-02-14T01:20:50.566Z,1022.32
2023-02-14T01:21:50.527Z,1022.33
2023-02-14T01:22:50.501Z,1022.33
2023-02-14T01:23:50.458Z,1022.32
2023-02-14T01:24:50.431Z,1022.35
2023-02-14T01:25:50.390Z,1022.34
2023-02-14T01:26:50.359Z,1022.37
2023-02-14T01:27:50.321Z,1022.33
2023-02-14T01:28:50.287Z,1022.36
2023-02-14T01:29:50.318Z,1022.35
2023-02-14T01:30:50.256Z,1022.36
2023-02-14T01:31:50.200Z,1022.37
2023-02-14T01:32:50.150Z,1022.34
2023-02-14T01:33:50.134Z,1022.4
2023-02-14T01:34:50.082Z,1022.38
2023-02-14T01:35:50.046Z,1022.4
2023-02-14T01:36:50.018Z,1022.39
2023-02-14T01:37:49.977Z,1022.36
2023-02-14T01:38:49.946Z,1022.4
2023-02-14T01:39:49.910Z,1022.4
2023-02-14T01:40:49.875Z,1022.41
2023-02-14T01:41:49.852Z,1022.38
2023-02-14T01:42:49.809Z,1022.38
2023-02-14T01:43:49.771Z,1022.38
2023-02-14T01:44:49.739Z,1022.41
2023-02-14T01:45:49.798Z,1022.38
2023-02-14T01:46:49.671Z,1022.4
2023-02-14T01:47:49.633Z,1022.4
2023-02-14T01:48:49.600Z,1022.36
2023-02-14T01:49:49.574Z,1022.37
2023-02-14T01:50:49.533Z,1022.37
2023-02-14T01:51:49.497Z,1022.31
2023-02-14T01:52:49.463Z,1022.35
2023-02-14T01:53:49.429Z,1022.34
2023-02-14T01:54:49.393Z,1022.32
2023-02-14T01:55:49.360Z,1022.32
2023-02-14T01:56:49.332Z,1022.32
2023-02-14T01:57:49.292Z,1022.3
2023-02-14T01:58:49.261Z,1022.31
2023-02-14T01:59:49.227Z,1022.28
2023-02-14T02:00:49.230Z,1022.28
2023-02-14T02:01:49.182Z,1022.26
2023-02-14T02:02:49.117Z,1022.21
2023-02-14T02:03:49.084Z,1022.24
2023-02-14T02:04:49.050Z,1022.21
2023-02-14T02:05:49.016Z,1022.21
2023-02-14T02:06:48.979Z,1022.16
2023-02-14T02:07:48.945Z,1022.19
2023-02-14T02:08:48.913Z,1022.17
2023-02-14T02:09:48.902Z,1022.14
2023-02-14T02:10:48.838Z,1022.21
2023-02-14T02:11:48.813Z,1022.17
2023-02-14T02:12:48.772Z,1022.2
2023-02-14T02:13:48.737Z,1022.15
2023-02-14T02:14:48.710Z,1022.17
2023-02-14T02:15:48.668Z,1022.17
2023-02-14T02:16:48.640Z,1022.14
2023-02-14T02:17:48.636Z,1022.16
2023-02-14T02:18:48.561Z,1022.13
2023-02-14T02:19:48.531Z,1022.07
2023-02-14T02:20:48.497Z,1022.12
2023-02-14T02:21:48.461Z,1022.06
2023-02-14T02:22:48.445Z,1022.04
2023-02-14T02:23:48.391Z,1022.03
2023-02-14T02:24:48.356Z,1022.03
2023-02-14T02:25:48.321Z,1022.03
2023-02-14T02:26:48.287Z,1022
2023-02-14T02:27:48.257Z,1021.99
2023-02-14T02:28:48.216Z,1021.97
2023-02-14T02:29:48.216Z,1021.96
2023-02-14T02:30:48.339Z,1021.95
2023-02-14T02:31:48.190Z,1021.93
2023-02-14T02:32:48.079Z,1021.91
2023-02-14T02:33:48.075Z,1021.93
2023-02-14T02:34:48.013Z,1021.95
2023-02-14T02:35:47.978Z,1021.95
2023-02-14T02:36:47.952Z,1021.91
2023-02-14T02:37:47.912Z,1021.88
2023-02-14T02:38:47.872Z,1021.91
2023-02-14T02:39:47.842Z,1021.89
2023-02-14T02:40:47.805Z,1021.91
2023-02-14T02:41:47.775Z,1021.87
2023-02-14T02:42:47.734Z,1021.9
2023-02-14T02:43:47.710Z,1021.89
2023-02-14T02:44:47.665Z,1021.85
2023-02-14T02:45:47.656Z,1021.87
2023-02-14T02:46:47.599Z,1021.85
2023-02-14T02:47:47.562Z,1021.86
2023-02-14T02:48:47.527Z,1021.85
2023-02-14T02:49:47.521Z,1021.84
2023-02-14T02:50:47.477Z,1021.85
2023-02-14T02:51:47.424Z,1021.84
2023-02-14T02:52:47.391Z,1021.87
2023-02-14T02:53:47.354Z,1021.88
2023-02-14T02:54:47.322Z,1021.9
2023-02-14T02:55:47.286Z,1021.93
2023-02-14T02:56:47.307Z,1021.9
2023-02-14T02:57:47.216Z,1021.91
2023-02-14T02:58:47.185Z,1021.92
2023-02-14T02:59:47.154Z,1021.9
2023-02-14T03:00:47.114Z,1021.9
2023-02-14T03:01:47.157Z,1021.93
2023-02-14T03:02:47.048Z,1021.93
2023-02-14T03:03:47.009Z,1021.88
2023-02-14T03:04:47.029Z,1021.9
2023-02-14T03:05:46.969Z,1021.88
2023-02-14T03:06:46.914Z,1021.87
2023-02-14T03:07:46.871Z,1021.87
2023-02-14T03:08:46.840Z,1021.94
2023-02-14T03:09:46.803Z,1021.92
2023-02-14T03:10:46.771Z,1021.86
2023-02-14T03:11:46.734Z,1021.88
2023-02-14T03:12:46.701Z,1021.86
2023-02-14T03:13:46.665Z,1021.83
2023-02-14T03:14:46.642Z,1021.83
2023-02-14T03:15:46.669Z,1021.84
2023-02-14T03:16:46.591Z,1021.83
2023-02-14T03:17:46.528Z,1021.85
2023-02-14T03:18:46.519Z,1021.79
2023-02-14T03:19:46.458Z,1021.79
2023-02-14T03:20:46.427Z,1021.82
2023-02-14T03:21:46.554Z,1021.82
2023-02-14T03:22:46.358Z,1021.84
2023-02-14T03:23:46.323Z,1021.8
2023-02-14T03:24:46.304Z,1021.82
2023-02-14T03:25:46.251Z,1021.8
2023-02-14T03:26:46.224Z,1021.82
2023-02-14T03:27:46.185Z,1021.8
2023-02-14T03:28:46.151Z,1021.82
2023-02-14T03:29:46.114Z,1021.83
2023-02-14T03:30:46.168Z,1021.82
2023-02-14T03:31:46.280Z,1021.83
2023-02-14T03:32:46.014Z,1021.82
2023-02-14T03:33:45.978Z,1021.82
2023-02-14T03:34:45.945Z,1021.81
2023-02-14T03:35:45.916Z,1021.78
2023-02-14T03:36:45.875Z,1021.79
2023-02-14T03:37:45.873Z,1021.84
2023-02-14T03:38:45.830Z,1021.82
2023-02-14T03:39:45.771Z,1021.79
2023-02-14T03:40:45.747Z,1021.81
2023-02-14T03:41:45.712Z,1021.8
2023-02-14T03:42:45.671Z,1021.77
2023-02-14T03:43:45.637Z,1021.77
2023-02-14T03:44:45.602Z,1021.75
2023-02-14T03:45:45.566Z,1021.74
2023-02-14T03:46:45.620Z,1021.71
2023-02-14T03:47:45.501Z,1021.73
2023-02-14T03:48:45.462Z,1021.7
2023-02-14T03:49:45.437Z,1021.73
2023-02-14T03:50:45.404Z,1021.75
2023-02-14T03:51:45.359Z,1021.72
2023-02-14T03:52:45.324Z,1021.72
2023-02-14T03:53:45.320Z,1021.73
2023-02-14T03:54:45.256Z,1021.72
2023-02-14T03:55:45.224Z,1021.68
2023-02-14T03:56:45.187Z,1021.71
2023-02-14T03:57:45.153Z,1021.72
2023-02-14T03:58:45.118Z,1021.65
2023-02-14T03:59:45.085Z,1021.69
2023-02-14T04:00:45.048Z,1021.65
2023-02-14T04:01:45.061Z,1021.69
2023-02-14T04:02:44.979Z,1021.67
2023-02-14T04:03:45.015Z,1021.66
2023-02-14T04:04:44.917Z,1021.66
2023-02-14T04:05:44.877Z,1021.65
2023-02-14T04:06:44.841Z,1021.68
2023-02-14T04:07:44.811Z,1021.69
2023-02-14T04:08:44.776Z,1021.69
2023-02-14T04:09:44.767Z,1021.69
2023-02-14T04:10:44.705Z,1021.66
2023-02-14T04:11:44.672Z,1021.68
2023-02-14T04:12:44.637Z,1021.66
2023-02-14T04:13:44.606Z,1021.7
2023-02-14T04:14:44.564Z,1021.66
2023-02-14T04:15:44.555Z,1021.68
2023-02-14T04:16:44.497Z,1021.68
2023-02-14T04:17:44.468Z,1021.67
2023-02-14T04:18:44.428Z,1021.67
2023-02-14T04:19:44.395Z,1021.68
2023-02-14T04:20:44.360Z,1021.67
2023-02-14T04:21:44.329Z,1021.67
2023-02-14T04:22:44.290Z,1021.63
2023-02-14T04:23:44.258Z,1021.68
2023-02-14T04:24:44.223Z,1021.7
2023-02-14T04:25:44.218Z,1021.65
2023-02-14T04:26:44.155Z,1021.63
2023-02-14T04:27:44.119Z,1021.63
2023-02-14T04:28:44.083Z,1021.6
2023-02-14T04:29:44.063Z,1021.66
2023-02-14T04:30:44.013Z,1021.66
2023-02-14T04:31:44.063Z,1021.63
2023-02-14T04:32:43.947Z,1021.63
2023-02-14T04:33:43.911Z,1021.61
2023-02-14T04:34:43.879Z,1021.61
2023-02-14T04:35:43.855Z,1021.6
2023-02-14T04:36:43.809Z,1021.59
2023-02-14T04:37:43.771Z,1021.57
2023-02-14T04:38:43.737Z,1021.55
2023-02-14T04:39:43.703Z,1021.61
2023-02-14T04:40:43.674Z,1021.6
2023-02-14T04:41:43.674Z,1021.56
2023-02-14T04:42:43.599Z,1021.56
2023-02-14T04:43:43.563Z,1021.6
2023-02-14T04:44:43.531Z,1021.59
2023-02-14T04:45:43.501Z,1021.55
2023-02-14T04:46:43.479Z,1021.56
2023-02-14T04:47:43.429Z,1021.54
2023-02-14T04:48:43.396Z,1021.57
2023-02-14T04:49:43.364Z,1021.53
2023-02-14T04:50:43.324Z,1021.49
2023-02-14T04:51:43.288Z,1021.5
2023-02-14T04:52:43.267Z,1021.47
2023-02-14T04:53:43.217Z,1021.41
2023-02-14T04:54:43.184Z,1021.4
2023-02-14T04:55:43.149Z,1021.42
2023-02-14T04:56:43.117Z,1021.42
2023-02-14T04:57:43.105Z,1021.4
2023-02-14T04:58:43.047Z,1021.37
2023-02-14T04:59:43.009Z,1021.38
2023-02-14T05:00:42.982Z,1021.35
2023-02-14T05:01:42.991Z,1021.37
2023-02-14T05:02:42.913Z,1021.32
2023-02-14T05:03:43.029Z,1021.36
2023-02-14T05:04:42.834Z,1021.32
2023-02-14T05:05:42.802Z,1021.3
2023-02-14T05:06:42.768Z,1021.28
2023-02-14T05:07:42.731Z,1021.27
2023-02-14T05:08:42.696Z,1021.3
2023-02-14T05:09:42.659Z,1021.31
2023-02-14T05:10:42.625Z,1021.32
2023-02-14T05:11:42.589Z,1021.3
2023-02-14T05:12:42.556Z,1021.28
2023-02-14T05:13:42.548Z,1021.24
2023-02-14T05:14:42.487Z,1021.23
2023-02-14T05:15:42.453Z,1021.22
2023-02-14T05:16:42.526Z,1021.21
2023-02-14T05:17:42.382Z,1021.18
2023-02-14T05:18:42.346Z,1021.21
2023-02-14T05:19:42.309Z,1021.18
2023-02-14T05:20:42.292Z,1021.14
2023-02-14T05:21:42.240Z,1021.17
2023-02-14T05:22:42.213Z,1021.14
2023-02-14T05:23:42.169Z,1021.13
2023-02-14T05:24:42.136Z,1021.08
2023-02-14T05:25:42.104Z,1021.11
2023-02-14T05:26:42.065Z,1021.09
2023-02-14T05:27:42.032Z,1021.13
2023-02-14T05:28:41.995Z,1021.07
2023-02-14T05:29:41.991Z,1021.09
2023-02-14T05:30:42.118Z,1021.05
2023-02-14T05:31:41.996Z,1021.1
2023-02-14T05:32:41.856Z,1021.07
2023-02-14T05:33:41.840Z,1021.1
2023-02-14T05:34:41.788Z,1021.13
2023-02-14T05:35:41.757Z,1021.13
2023-02-14T05:36:41.718Z,1021.16
2023-02-14T05:37:41.681Z,1021.09
2023-02-14T05:38:41.646Z,1021.14
2023-02-14T05:39:41.622Z,1021.15
2023-02-14T05:40:41.581Z,1021.15
2023-02-14T05:41:41.550Z,1021.14
2023-02-14T05:42:41.506Z,1021.16
2023-02-14T05:43:41.474Z,1021.15
2023-02-14T05:44:41.439Z,1021.15
2023-02-14T05:45:41.466Z,1021.14
2023-02-14T05:46:41.366Z,1021.13
2023-02-14T05:47:41.334Z,1021.11
2023-02-14T05:48:41.298Z,1021.12
2023-02-14T05:49:41.267Z,1021.07
2023-02-14T05:50:41.228Z,1021.07
2023-02-14T05:51:41.199Z,1021.1
2023-02-14T05:52:41.166Z,1021.09
2023-02-14T05:53:41.125Z,1021.09
2023-02-14T05:54:41.097Z,1021.11
2023-02-14T05:55:41.060Z,1021.09
2023-02-14T05:56:41.021Z,1021.1
2023-02-14T05:57:40.987Z,1021.11
2023-02-14T05:58:40.956Z,1021.12
2023-02-14T05:59:40.922Z,1021.11
2023-02-14T06:00:41.450Z,1021.1
2023-02-14T06:01:40.912Z,1021.14
2023-02-14T06:02:40.814Z,1021.14
2023-02-14T06:03:40.780Z,1021.15
2023-02-14T06:04:40.821Z,1021.14
2023-02-14T06:05:40.710Z,1021.11
2023-02-14T06:06:40.676Z,1021.12
2023-02-14T06:07:40.639Z,1021.12
2023-02-14T06:08:40.603Z,1021.12
2023-02-14T06:09:40.577Z,1021.19
2023-02-14T06:10:40.594Z,1021.15
2023-02-14T06:11:40.565Z,1021.19
2023-02-14T06:12:40.463Z,1021.22
2023-02-14T06:13:40.447Z,1021.22
2023-02-14T06:14:40.392Z,1021.19
2023-02-14T06:15:40.359Z,1021.24
2023-02-14T06:16:40.385Z,1021.28
2023-02-14T06:17:40.315Z,1021.29
2023-02-14T06:18:40.253Z,1021.31
2023-02-14T06:19:40.218Z,1021.35
2023-02-14T06:20:40.187Z,1021.36
2023-02-14T06:21:40.144Z,1021.35
2023-02-14T06:22:40.114Z,1021.35
2023-02-14T06:23:40.075Z,1021.36
2023-02-14T06:24:40.053Z,1021.38
2023-02-14T06:25:40.008Z,1021.42
2023-02-14T06:26:39.974Z,1021.39
2023-02-14T06:27:39.937Z,1021.43
2023-02-14T06:28:39.922Z,1021.44
2023-02-14T06:29:39.862Z,1021.43
2023-02-14T06:30:39.997Z,1021.41
2023-02-14T06:31:39.938Z,1021.46
2023-02-14T06:32:39.759Z,1021.45
2023-02-14T06:33:39.746Z,1021.46
2023-02-14T06:34:39.687Z,1021.49
2023-02-14T06:35:39.650Z,1021.48
2023-02-14T06:36:39.616Z,1021.51
2023-02-14T06:37:39.580Z,1021.47
2023-02-14T06:38:39.544Z,1021.49
2023-02-14T06:39:39.511Z,1021.55
2023-02-14T06:40:39.474Z,1021.52
2023-02-14T06:41:39.437Z,1021.49
2023-02-14T06:42:39.404Z,1021.53
2023-02-14T06:43:39.368Z,1021.53
2023-02-14T06:44:39.331Z,1021.53
2023-02-14T06:45:39.295Z,1021.57
2023-02-14T06:46:39.266Z,1021.54
2023-02-14T06:47:39.236Z,1021.53
2023-02-14T06:48:39.189Z,1021.59
2023-02-14T06:49:39.180Z,1021.56
2023-02-14T06:50:39.140Z,1021.56
2023-02-14T06:51:39.095Z,1021.56
2023-02-14T06:52:39.047Z,1021.57
2023-02-14T06:53:39.010Z,1021.59
2023-02-14T06:54:38.978Z,1021.57
2023-02-14T06:55:38.939Z,1021.57
2023-02-14T06:56:38.905Z,1021.6
2023-02-14T06:57:38.869Z,1021.59
2023-02-14T06:58:38.837Z,1021.6
2023-02-14T06:59:38.800Z,1021.62
2023-02-14T07:00:38.765Z,1021.58
2023-02-14T07:01:38.842Z,1021.6
2023-02-14T07:02:38.819Z,1021.59
2023-02-14T07:03:38.660Z,1021.59
2023-02-14T07:04:38.621Z,1021.6
2023-02-14T07:05:38.612Z,1021.58
2023-02-14T07:06:38.557Z,1021.61
2023-02-14T07:07:38.513Z,1021.62
2023-02-14T07:08:38.477Z,1021.64
2023-02-14T07:09:38.448Z,1021.64
2023-02-14T07:10:38.406Z,1021.68
2023-02-14T07:11:38.372Z,1021.68
2023-02-14T07:12:38.336Z,1021.67
2023-02-14T07:13:38.301Z,1021.71
2023-02-14T07:14:38.269Z,1021.69
2023-02-14T07:15:38.250Z,1021.72
2023-02-14T07:16:38.195Z,1021.69
2023-02-14T07:17:38.161Z,1021.73
2023-02-14T07:18:38.125Z,1021.73
2023-02-14T07:19:38.093Z,1021.73
2023-02-14T07:20:38.054Z,1021.7
2023-02-14T07:21:38.048Z,1021.75
2023-02-14T07:22:38.022Z,1021.72
2023-02-14T07:23:37.976Z,1021.71
2023-02-14T07:24:37.926Z,1021.73
2023-02-14T07:25:37.880Z,1021.72
2023-02-14T07:26:37.841Z,1021.71
2023-02-14T07:27:37.807Z,1021.68
2023-02-14T07:28:37.773Z,1021.74
2023-02-14T07:29:37.752Z,1021.72
2023-02-14T07:30:37.701Z,1021.72
2023-02-14T07:31:37.785Z,1021.74
2023-02-14T07:32:37.631Z,1021.7
2023-02-14T07:33:37.598Z,1021.7
2023-02-14T07:34:37.562Z,1021.67
2023-02-14T07:35:37.528Z,1021.69
2023-02-14T07:36:37.490Z,1021.64
2023-02-14T07:37:37.498Z,1021.69
2023-02-14T07:38:37.421Z,1021.67
2023-02-14T07:39:37.386Z,1021.69
2023-02-14T07:40:37.352Z,1021.68
2023-02-14T07:41:37.319Z,1021.67
2023-02-14T07:42:37.283Z,1021.66
2023-02-14T07:43:37.247Z,1021.66
2023-02-14T07:44:37.321Z,1021.66
2023-02-14T07:45:37.176Z,1021.64
2023-02-14T07:46:37.218Z,1021.61
2023-02-14T07:47:37.128Z,1021.64
2023-02-14T07:48:37.072Z,1021.62
2023-02-14T07:49:37.037Z,1021.62
2023-02-14T07:50:37.002Z,1021.61
2023-02-14T07:51:37.016Z,1021.65
2023-02-14T07:52:36.935Z,1021.62
2023-02-14T07:53:36.921Z,1021.57
2023-02-14T07:54:36.861Z,1021.56
2023-02-14T07:55:36.829Z,1021.57
2023-02-14T07:56:36.792Z,1021.54
2023-02-14T07:57:36.760Z,1021.54
2023-02-14T07:58:36.724Z,1021.56
2023-02-14T07:59:36.687Z,1021.55
2023-02-14T08:00:36.658Z,1021.57
2023-02-14T08:01:36.713Z,1021.58
2023-02-14T08:02:36.590Z,1021.56
2023-02-14T08:03:36.548Z,1021.59
2023-02-14T08:04:36.568Z,1021.57
2023-02-14T08:05:36.482Z,1021.56
2023-02-14T08:06:36.446Z,1021.52
2023-02-14T08:07:36.420Z,1021.53
2023-02-14T08:08:36.390Z,1021.53
2023-02-14T08:09:36.404Z,1021.51
2023-02-14T08:10:36.317Z,1021.49
2023-02-14T08:11:36.280Z,1021.51
2023-02-14T08:12:36.238Z,1021.49
2023-02-14T08:13:36.201Z,1021.54
2023-02-14T08:14:36.166Z,1021.55
2023-02-14T08:15:36.131Z,1021.55
2023-02-14T08:16:36.227Z,1021.55
2023-02-14T08:17:36.699Z,1021.58
2023-02-14T08:18:36.049Z,1021.54
2023-02-14T08:19:35.992Z,1021.55
2023-02-14T08:20:35.959Z,1021.57
2023-02-14T08:21:35.923Z,1021.54
2023-02-14T08:22:35.890Z,1021.56
2023-02-14T08:23:35.854Z,1021.55
2023-02-14T08:24:35.823Z,1021.55
2023-02-14T08:25:35.817Z,1021.54
2023-02-14T08:26:35.752Z,1021.54
2023-02-14T08:27:35.724Z,1021.53
2023-02-14T08:28:35.692Z,1021.55
2023-02-14T08:29:35.647Z,1021.56
2023-02-14T08:30:35.616Z,1021.55
2023-02-14T08:31:36.719Z,1021.51
2023-02-14T08:32:35.676Z,1021.55
2023-02-14T08:33:35.511Z,1021.55
2023-02-14T08:34:35.483Z,1021.53
2023-02-14T08:35:35.455Z,1021.52
2023-02-14T08:36:35.408Z,1021.56
2023-02-14T08:37:35.374Z,1021.54
2023-02-14T08:38:35.350Z,1021.58
2023-02-14T08:39:35.311Z,1021.62
2023-02-14T08:40:35.331Z,1021.56
2023-02-14T08:41:35.265Z,1021.56
2023-02-14T08:42:35.217Z,1021.59
2023-02-14T08:43:35.214Z,1021.61
2023-02-14T08:44:35.138Z,1021.59
2023-02-14T08:45:35.211Z,1021.59
2023-02-14T08:46:35.189Z,1021.6
2023-02-14T08:47:35.054Z,1021.59
2023-02-14T08:48:36.730Z,1021.59
2023-02-14T08:49:34.994Z,1021.59
2023-02-14T08:50:34.935Z,1021.59
2023-02-14T08:51:34.909Z,1021.56
2023-02-14T08:52:34.868Z,1021.58
2023-02-14T08:53:34.838Z,1021.59
2023-02-14T08:54:34.800Z,1021.55
2023-02-14T08:55:34.849Z,1021.53
2023-02-14T08:56:34.756Z,1021.62
2023-02-14T08:57:34.742Z,1021.57
2023-02-14T08:58:34.675Z,1021.58
2023-02-14T08:59:34.655Z,1021.57
2023-02-14T09:00:34.698Z,1021.55
2023-02-14T09:01:34.584Z,1021.6
2023-02-14T09:02:34.705Z,1021.54
2023-02-14T09:03:36.106Z,1021.56
2023-02-14T09:04:34.588Z,1021.55
2023-02-14T09:05:34.434Z,1021.54
2023-02-14T09:06:34.398Z,1021.48
2023-02-14T09:07:34.374Z,1021.5
2023-02-14T09:08:34.334Z,1021.48
2023-02-14T09:09:34.300Z,1021.5
2023-02-14T09:10:34.271Z,1021.48
2023-02-14T09:11:34.258Z,1021.49
2023-02-14T09:12:34.200Z,1021.47
2023-02-14T09:13:34.194Z,1021.49
2023-02-14T09:14:34.151Z,1021.5
2023-02-14T09:15:34.102Z,1021.49
2023-02-14T09:16:34.145Z,1021.48
2023-02-14T09:17:34.040Z,1021.43
2023-02-14T09:18:34.003Z,1021.5
2023-02-14T09:19:33.969Z,1021.49
2023-02-14T09:20:34.007Z,1021.46
2023-02-14T09:21:33.903Z,1021.45
2023-02-14T09:22:33.948Z,1021.48
2023-02-14T09:23:33.837Z,1021.44
2023-02-14T09:24:33.802Z,1021.43
2023-02-14T09:25:33.771Z,1021.43
2023-02-14T09:26:33.737Z,1021.41
2023-02-14T09:27:33.720Z,1021.4
2023-02-14T09:28:33.673Z,1021.37
2023-02-14T09:29:33.688Z,1021.34
2023-02-14T09:30:33.650Z,1021.33
2023-02-14T09:31:33.752Z,1021.32
2023-02-14T09:32:33.660Z,1021.33
2023-02-14T09:33:33.509Z,1021.31
2023-02-14T09:34:33.477Z,1021.31
2023-02-14T09:35:33.446Z,1021.3
2023-02-14T09:36:33.430Z,1021.31
2023-02-14T09:37:33.389Z,1021.32
2023-02-14T09:38:33.345Z,1021.24
2023-02-14T09:39:33.315Z,1021.2
2023-02-14T09:40:33.285Z,1021.23
2023-02-14T09:41:33.247Z,1021.2
2023-02-14T09:42:33.217Z,1021.18
2023-02-14T09:43:33.191Z,1021.2
2023-02-14T09:44:33.157Z,1021.18
2023-02-14T09:45:33.253Z,1021.18
2023-02-14T09:46:33.092Z,1021.15
2023-02-14T09:47:33.054Z,1021.17
2023-02-14T09:48:33.026Z,1021.17
2023-02-14T09:49:33.148Z,1021.13
2023-02-14T09:50:32.960Z,1021.18
2023-02-14T09:51:32.926Z,1021.15
2023-02-14T09:52:32.895Z,1021.15
2023-02-14T09:53:32.861Z,1021.15
2023-02-14T09:54:32.831Z,1021.18
2023-02-14T09:55:32.800Z,1021.15
2023-02-14T09:56:40.014Z,1021.18
2023-02-14T09:57:32.734Z,1021.16
2023-02-14T09:58:32.702Z,1021.13
2023-02-14T09:59:32.670Z,1021.14
2023-02-14T10:00:32.640Z,1021.11
2023-02-14T10:01:32.701Z,1021.12
2023-02-14T10:02:32.660Z,1021.11
2023-02-14T10:03:32.546Z,1021.1
2023-02-14T10:04:32.512Z,1021.12
2023-02-14T10:05:32.481Z,1021.08
2023-02-14T10:06:32.451Z,1021.08
2023-02-14T10:07:32.416Z,1021.11
2023-02-14T10:08:32.388Z,1021.05
2023-02-14T10:09:32.354Z,1021.05
2023-02-14T10:10:32.325Z,1021.02
2023-02-14T10:11:32.291Z,1020.99
2023-02-14T10:12:32.261Z,1021
2023-02-14T10:13:32.231Z,1020.98
2023-02-14T10:14:32.200Z,1020.98
2023-02-14T10:15:32.194Z,1020.98
2023-02-14T10:16:32.188Z,1020.97
2023-02-14T10:17:32.129Z,1021
2023-02-14T10:18:32.072Z,1021
2023-02-14T10:19:32.039Z,1020.95
2023-02-14T10:20:32.012Z,1020.99
2023-02-14T10:21:31.985Z,1020.97
2023-02-14T10:22:31.949Z,1021
2023-02-14T10:23:31.916Z,1021
2023-02-14T10:24:31.887Z,1021.02
2023-02-14T10:25:31.857Z,1021.03
2023-02-14T10:26:31.826Z,1021.03
2023-02-14T10:27:31.836Z,1021.06
2023-02-14T10:28:31.769Z,1021.06
2023-02-14T10:29:31.732Z,1021.01
2023-02-14T10:30:31.770Z,1021
2023-02-14T10:31:31.776Z,1020.97
2023-02-14T10:32:31.640Z,1020.96
2023-02-14T10:33:31.615Z,1020.97
2023-02-14T10:34:31.578Z,1021.03
2023-02-14T10:35:31.551Z,1021
2023-02-14T10:36:31.516Z,1020.99
2023-02-14T10:37:31.487Z,1021.01
2023-02-14T10:38:31.455Z,1020.97
2023-02-14T10:39:31.426Z,1020.97
2023-02-14T10:40:31.394Z,1020.95
2023-02-14T10:41:31.376Z,1020.96
2023-02-14T10:42:31.344Z,1020.95
2023-02-14T10:43:31.344Z,1020.97
2023-02-14T10:44:31.279Z,1020.94
2023-02-14T10:45:31.253Z,1020.94
2023-02-14T10:46:31.254Z,1020.9
2023-02-14T10:47:31.182Z,1020.96
2023-02-14T10:48:31.158Z,1020.88
2023-02-14T10:49:31.122Z,1020.88
2023-02-14T10:50:31.096Z,1020.88
2023-02-14T10:51:33.546Z,1020.89
2023-02-14T10:52:31.062Z,1020.93
2023-02-14T10:53:31.002Z,1020.87
2023-02-14T10:54:30.971Z,1020.88
2023-02-14T10:55:32.570Z,1020.87
2023-02-14T10:56:30.910Z,1020.88
2023-02-14T10:57:30.880Z,1020.89
2023-02-14T10:58:30.862Z,1020.86
2023-02-14T10:59:30.844Z,1020.82
2023-02-14T11:00:30.794Z,1020.83
2023-02-14T11:01:30.833Z,1020.85
2023-02-14T11:02:30.734Z,1020.84
2023-02-14T11:03:30.777Z,1020.81
2023-02-14T11:04:30.671Z,1020.78
2023-02-14T11:05:30.644Z,1020.78
2023-02-14T11:06:30.612Z,1020.79
2023-02-14T11:07:30.606Z,1020.78
2023-02-14T11:08:30.555Z,1020.76
2023-02-14T11:09:30.524Z,1020.75
2023-02-14T11:10:30.505Z,1020.74
2023-02-14T11:11:30.477Z,1020.73
2023-02-14T11:12:30.436Z,1020.67
2023-02-14T11:13:30.408Z,1020.67
2023-02-14T11:14:30.375Z,1020.67
2023-02-14T11:15:30.371Z,1020.64
2023-02-14T11:16:30.385Z,1020.63
2023-02-14T11:17:30.287Z,1020.61
2023-02-14T11:18:30.264Z,1020.58
2023-02-14T11:19:30.233Z,1020.56
2023-02-14T11:20:30.206Z,1020.51
2023-02-14T11:21:30.169Z,1020.51
2023-02-14T11:22:30.150Z,1020.53
2023-02-14T11:23:30.127Z,1020.48
2023-02-14T11:24:30.078Z,1020.47
2023-02-14T11:25:30.048Z,1020.46
2023-02-14T11:26:30.030Z,1020.47
2023-02-14T11:27:29.994Z,1020.43
2023-02-14T11:28:29.962Z,1020.42
2023-02-14T11:29:29.937Z,1020.42
2023-02-14T11:30:30.035Z,1020.41
2023-02-14T11:31:30.015Z,1020.4
2023-02-14T11:32:29.847Z,1020.31
2023-02-14T11:33:29.817Z,1020.3
2023-02-14T11:34:29.788Z,1020.3
2023-02-14T11:35:29.761Z,1020.3
2023-02-14T11:36:29.736Z,1020.28
2023-02-14T11:37:29.708Z,1020.25
2023-02-14T11:38:29.672Z,1020.28
2023-02-14T11:39:29.646Z,1020.22
2023-02-14T11:40:29.615Z,1020.24
2023-02-14T11:41:29.591Z,1020.24
2023-02-14T11:42:29.558Z,1020.21
2023-02-14T11:43:29.535Z,1020.19
2023-02-14T11:44:29.504Z,1020.17
2023-02-14T11:45:29.468Z,1020.2
2023-02-14T11:46:29.458Z,1020.15
2023-02-14T11:47:29.436Z,1020.15
2023-02-14T11:48:38.098Z,1020.12
2023-02-14T11:49:29.375Z,1020.09
2023-02-14T11:50:29.327Z,1020.09
2023-02-14T11:51:29.302Z,1020.09
2023-02-14T11:52:29.274Z,1020.07
2023-02-14T11:53:29.240Z,1020.07
2023-02-14T11:54:29.215Z,1020.07
2023-02-14T11:55:29.238Z,1020.07
2023-02-14T11:56:29.158Z,1020.02
2023-02-14T11:57:29.132Z,1020.03
2023-02-14T11:58:29.102Z,1020.01
2023-02-14T11:59:29.072Z,1019.95
2023-02-14T12:00:29.046Z,1019.96
2023-02-14T12:01:29.015Z,1019.96
2023-02-14T12:02:29.030Z,1019.99
2023-02-14T12:03:29.002Z,1019.95
2023-02-14T12:04:30.740Z,1019.96
2023-02-14T12:05:28.920Z,1019.96
2023-02-14T12:06:28.880Z,1019.94
2023-02-14T12:07:28.859Z,1019.9
2023-02-14T12:08:28.821Z,1019.91